Time;durP1;ratioP1;P1;durP2;ratioP2;P2;SDS_P1;SDS_P2;PMS_P1;PMS_P2;Temp;Humidity;BMP_temperature;BMP_pressure;BME280_temperature;BME280_humidity;BME280_pressure;Samples;Min_cycle;Max_cycle;Signal;HPM_P1;HPM_P2
2023/06/15 00:00:54;;;;;;;10.50;3.25;;;17.10;99.90;;;;;;5045076;28;20116;-71
2023/06/15 00:03:20;;;;;;;6.03;3.47;;;17.00;99.90;;;;;;5044867;28;20032;-69
2023/06/15 00:05:46;;;;;;;7.55;3.42;;;17.10;99.90;;;;;;5044352;28;20025;-70
2023/06/15 00:08:12;;;;;;;6.60;3.20;;;17.00;99.90;;;;;;5044755;28;20017;-70
2023/06/15 00:10:38;;;;;;;6.45;2.95;;;17.00;99.90;;;;;;5041724;28;20055;-71
2023/06/15 00:13:03;;;;;;;7.15;2.95;;;17.00;99.90;;;;;;5042108;28;20044;-71
2023/06/15 00:15:29;;;;;;;4.38;2.88;;;17.10;99.90;;;;;;5044321;28;20082;-71
2023/06/15 00:17:54;;;;;;;5.57;2.97;;;17.00;99.90;;;;;;5043602;28;20097;-70
2023/06/15 00:20:28;;;;;;;8.90;3.25;;;17.00;99.90;;;;;;5044219;28;20718;-71
2023/06/15 00:22:55;;;;;;;6.25;3.00;;;17.00;99.90;;;;;;5044290;28;20047;-72
2023/06/15 00:25:21;;;;;;;7.10;3.25;;;17.10;99.90;;;;;;5043897;28;20037;-71
2023/06/15 00:27:47;;;;;;;7.82;3.40;;;17.00;99.90;;;;;;5043701;28;20025;-71
2023/06/15 00:30:13;;;;;;;9.18;3.08;;;17.00;99.90;;;;;;5043546;28;20121;-71
2023/06/15 00:32:38;;;;;;;8.63;3.50;;;16.90;99.90;;;;;;5043228;28;20463;-69
2023/06/15 00:35:04;;;;;;;6.82;2.92;;;16.90;99.90;;;;;;5042805;28;20040;-70
2023/06/15 00:37:30;;;;;;;8.65;3.20;;;16.90;99.90;;;;;;5043208;28;20080;-72
2023/06/15 00:39:56;;;;;;;14.57;3.55;;;16.90;99.90;;;;;;5042663;28;20457;-70
2023/06/15 00:42:21;;;;;;;5.55;2.90;;;16.80;99.90;;;;;;5042386;28;20025;-73
2023/06/15 00:44:47;;;;;;;7.13;3.05;;;16.80;99.90;;;;;;5043387;28;20022;-69
2023/06/15 00:47:13;;;;;;;8.75;3.00;;;16.80;99.90;;;;;;5041631;28;20029;-72
2023/06/15 00:49:39;;;;;;;7.97;3.25;;;16.70;99.90;;;;;;5042835;28;20042;-71
2023/06/15 00:52:05;;;;;;;6.10;3.17;;;16.80;99.90;;;;;;5042075;28;20038;-70
2023/06/15 00:54:33;;;;;;;6.38;3.20;;;16.70;99.90;;;;;;5043216;28;20052;-71
2023/06/15 00:57:00;;;;;;;6.65;3.20;;;16.80;99.90;;;;;;5042062;28;20047;-72
2023/06/15 00:59:28;;;;;;;6.57;3.20;;;16.60;99.90;;;;;;5041202;28;20486;-71
2023/06/15 01:01:54;;;;;;;4.82;3.20;;;16.60;99.90;;;;;;5042215;28;20018;-71
2023/06/15 01:04:24;;;;;;;8.07;3.28;;;16.60;99.90;;;;;;5043159;28;20040;-69
2023/06/15 01:06:52;;;;;;;9.77;3.33;;;16.50;99.90;;;;;;5043342;28;20067;-72
2023/06/15 01:09:21;;;;;;;6.18;3.30;;;16.50;99.90;;;;;;5041808;28;20497;-72
2023/06/15 01:11:52;;;;;;;7.50;3.20;;;16.50;99.90;;;;;;5042260;28;20053;-69
2023/06/15 01:14:26;;;;;;;10.15;3.53;;;16.50;99.90;;;;;;5043161;28;20029;-71
2023/06/15 01:16:57;;;;;;;7.85;3.33;;;16.40;99.90;;;;;;5042630;28;20022;-71
2023/06/15 01:19:57;;;;;;;9.13;4.00;;;16.40;99.90;;;;;;5041089;28;20120;-70
2023/06/15 01:22:41;;;;;;;5.32;3.08;;;16.40;99.90;;;;;;5043136;28;20021;-71
2023/06/15 01:25:29;;;;;;;8.02;3.85;;;16.40;99.90;;;;;;5041235;28;20033;-71
2023/06/15 01:27:59;;;;;;;10.18;3.78;;;16.30;99.90;;;;;;5042626;28;20068;-70
2023/06/15 01:30:27;;;;;;;7.15;3.58;;;16.30;99.90;;;;;;5041890;28;20093;-71
2023/06/15 01:32:53;;;;;;;6.32;3.33;;;16.30;99.90;;;;;;5040720;28;20044;-70
2023/06/15 01:35:19;;;;;;;6.38;3.60;;;16.30;99.90;;;;;;5042322;28;20026;-70
2023/06/15 01:37:45;;;;;;;5.75;3.50;;;16.30;99.90;;;;;;5042742;28;20072;-70
2023/06/15 01:40:11;;;;;;;4.80;3.08;;;16.20;99.90;;;;;;5041870;28;20033;-70
2023/06/15 01:42:38;;;;;;;5.78;2.95;;;16.20;99.90;;;;;;5042759;28;20160;-69
2023/06/15 01:45:05;;;;;;;5.57;3.40;;;16.20;99.90;;;;;;5042192;28;20020;-70
2023/06/15 01:47:31;;;;;;;6.30;3.20;;;16.10;99.90;;;;;;5042501;28;20112;-70
2023/06/15 01:50:00;;;;;;;9.27;3.40;;;16.10;99.90;;;;;;5040963;28;20431;-71
2023/06/15 01:52:25;;;;;;;6.10;3.50;;;16.10;99.90;;;;;;5042299;28;20089;-70
2023/06/15 01:54:51;;;;;;;10.82;3.00;;;16.00;99.90;;;;;;5042111;28;20028;-71
2023/06/15 01:57:20;;;;;;;9.15;3.60;;;16.00;99.90;;;;;;5042256;28;20090;-72
2023/06/15 01:59:45;;;;;;;9.50;3.58;;;16.00;99.90;;;;;;5040822;28;20038;-71
2023/06/15 02:02:11;;;;;;;6.03;3.15;;;15.90;99.90;;;;;;5040523;28;20101;-70
2023/06/15 02:04:37;;;;;;;5.35;3.15;;;15.90;99.90;;;;;;5042408;28;20018;-72
2023/06/15 02:07:02;;;;;;;8.77;3.95;;;15.90;99.90;;;;;;5040568;28;20034;-71
2023/06/15 02:09:29;;;;;;;8.13;3.55;;;15.90;99.90;;;;;;5042257;28;20076;-70
2023/06/15 02:11:54;;;;;;;10.10;3.75;;;15.80;99.90;;;;;;5042063;28;20021;-71
2023/06/15 02:14:23;;;;;;;6.63;3.55;;;15.80;99.90;;;;;;5040677;28;20044;-71
2023/06/15 02:16:49;;;;;;;11.45;3.85;;;15.80;99.90;;;;;;5040471;28;20037;-70
2023/06/15 02:19:20;;;;;;;8.10;4.13;;;15.80;99.90;;;;;;5042139;28;20022;-71
2023/06/15 02:21:47;;;;;;;7.93;3.40;;;15.80;99.90;;;;;;5040695;28;20060;-70
2023/06/15 02:24:12;;;;;;;8.35;3.75;;;15.80;99.90;;;;;;5041553;28;20033;-69
2023/06/15 02:26:40;;;;;;;6.47;3.60;;;15.70;99.90;;;;;;5041928;28;20029;-71
2023/06/15 02:29:06;;;;;;;10.45;3.50;;;15.70;99.90;;;;;;5041593;28;20029;-70
2023/06/15 02:31:31;;;;;;;7.00;3.85;;;15.70;99.90;;;;;;5041610;28;20018;-72
2023/06/15 02:33:57;;;;;;;12.25;3.83;;;15.70;99.90;;;;;;5041811;28;20033;-70
2023/06/15 02:36:22;;;;;;;7.57;3.70;;;15.60;99.90;;;;;;5041809;28;20033;-71
2023/06/15 02:38:48;;;;;;;6.30;3.72;;;15.60;99.90;;;;;;5042023;28;20417;-71
2023/06/15 02:41:14;;;;;;;7.03;3.58;;;15.60;99.90;;;;;;5041285;28;20061;-72
2023/06/15 02:43:40;;;;;;;10.13;3.85;;;15.60;99.90;;;;;;5041813;28;20024;-71
2023/06/15 02:46:06;;;;;;;8.95;3.78;;;15.50;99.90;;;;;;5040667;28;20021;-71
2023/06/15 02:48:32;;;;;;;6.88;3.70;;;15.50;99.90;;;;;;5041042;28;20105;-70
2023/06/15 02:50:58;;;;;;;7.03;3.47;;;15.50;99.90;;;;;;5041729;28;20089;-72
2023/06/15 02:53:24;;;;;;;7.78;3.40;;;15.40;99.90;;;;;;5041913;28;20060;-70
2023/06/15 02:55:51;;;;;;;7.35;3.55;;;15.40;99.90;;;;;;5041244;28;20052;-73
2023/06/15 02:58:19;;;;;;;7.35;3.55;;;15.40;99.90;;;;;;5041666;28;20467;-70
2023/06/15 03:00:48;;;;;;;11.15;3.88;;;15.40;99.90;;;;;;5041350;28;20040;-70
2023/06/15 03:03:16;;;;;;;7.25;3.70;;;15.30;99.90;;;;;;5041088;28;20025;-73
2023/06/15 03:05:42;;;;;;;6.22;3.50;;;15.30;99.90;;;;;;5041660;28;20017;-70
2023/06/15 03:08:08;;;;;;;7.68;3.65;;;15.30;99.90;;;;;;5041234;28;20024;-72
2023/06/15 03:10:34;;;;;;;6.93;4.38;;;15.30;99.90;;;;;;5043054;28;20060;-70
2023/06/15 03:13:00;;;;;;;6.35;3.92;;;15.30;99.90;;;;;;5044339;28;20076;-70
2023/06/15 03:15:26;;;;;;;5.13;3.65;;;15.20;99.90;;;;;;5044211;28;20088;-72
2023/06/15 03:17:52;;;;;;;7.05;3.60;;;15.20;99.90;;;;;;5045356;28;20470;-70
2023/06/15 03:20:18;;;;;;;8.60;4.00;;;15.20;99.90;;;;;;5044898;28;20048;-70
2023/06/15 03:22:44;;;;;;;10.73;4.32;;;15.20;99.90;;;;;;5045111;28;20036;-70
2023/06/15 03:25:10;;;;;;;7.03;3.92;;;15.10;99.90;;;;;;5045034;28;20033;-70
2023/06/15 03:27:37;;;;;;;7.53;4.00;;;15.10;99.90;;;;;;5044039;28;20029;-72
2023/06/15 03:30:05;;;;;;;8.65;3.90;;;15.10;99.90;;;;;;5044991;28;20021;-72
2023/06/15 03:32:32;;;;;;;9.48;4.65;;;15.10;99.90;;;;;;5044980;28;20041;-71
2023/06/15 03:34:57;;;;;;;9.90;3.78;;;15.10;99.90;;;;;;5044857;28;20021;-69
2023/06/15 03:37:23;;;;;;;8.90;4.15;;;15.10;99.90;;;;;;5044558;28;20508;-69
2023/06/15 03:39:49;;;;;;;8.93;3.83;;;15.10;99.90;;;;;;5045030;28;20029;-70
2023/06/15 03:42:15;;;;;;;7.15;4.03;;;15.10;99.90;;;;;;5044965;28;20039;-70
2023/06/15 03:44:40;;;;;;;10.23;4.53;;;15.10;99.90;;;;;;5043004;28;20089;-70
2023/06/15 03:47:06;;;;;;;10.77;4.13;;;15.00;99.90;;;;;;5043496;28;20055;-72
2023/06/15 03:49:32;;;;;;;6.30;3.80;;;15.00;99.90;;;;;;5043862;28;20499;-70
2023/06/15 03:51:57;;;;;;;10.65;4.25;;;15.00;99.90;;;;;;5044062;28;20091;-69
2023/06/15 03:54:23;;;;;;;8.40;4.82;;;15.10;99.90;;;;;;5043409;28;20028;-69
2023/06/15 03:56:49;;;;;;;12.43;4.10;;;15.00;99.90;;;;;;5044904;28;20025;-72
2023/06/15 03:59:15;;;;;;;9.80;4.03;;;15.10;99.90;;;;;;5043011;28;20039;-71
2023/06/15 04:01:43;;;;;;;13.25;4.68;;;15.10;99.90;;;;;;5044633;28;20073;-71
2023/06/15 04:04:08;;;;;;;10.80;4.65;;;15.10;99.90;;;;;;5043179;28;20037;-71
2023/06/15 04:06:35;;;;;;;13.10;4.55;;;15.10;99.90;;;;;;5043047;28;20025;-70
2023/06/15 04:09:01;;;;;;;12.02;4.80;;;15.10;99.90;;;;;;5042961;28;20044;-71
2023/06/15 04:11:27;;;;;;;12.50;4.72;;;15.10;99.90;;;;;;5043182;28;20029;-68
2023/06/15 04:13:53;;;;;;;12.40;4.88;;;15.10;99.90;;;;;;5042734;28;20045;-71
2023/06/15 04:16:19;;;;;;;16.23;4.60;;;15.10;99.90;;;;;;5044395;28;20605;-68
2023/06/15 04:18:44;;;;;;;12.00;4.90;;;15.10;99.90;;;;;;5043932;28;20025;-70
2023/06/15 04:21:10;;;;;;;10.80;4.70;;;15.20;99.90;;;;;;5044010;28;20021;-69
2023/06/15 04:23:36;;;;;;;11.15;5.28;;;15.20;99.90;;;;;;5044429;28;20026;-70
2023/06/15 04:26:03;;;;;;;11.18;4.88;;;15.20;99.90;;;;;;5043962;28;20025;-71
2023/06/15 04:28:28;;;;;;;11.48;4.85;;;15.20;99.90;;;;;;5044224;28;20101;-70
2023/06/15 04:31:07;;;;;;;9.35;4.53;;;15.20;99.90;;;;;;5042371;28;20040;-69
2023/06/15 04:33:33;;;;;;;7.97;4.75;;;15.30;99.90;;;;;;5043592;28;20057;-70
2023/06/15 04:36:00;;;;;;;11.15;4.88;;;15.30;99.90;;;;;;5042639;28;20033;-68
2023/06/15 04:38:26;;;;;;;13.15;4.85;;;15.30;99.90;;;;;;5043903;28;20020;-71
2023/06/15 04:40:52;;;;;;;9.50;5.07;;;15.30;99.90;;;;;;5043495;28;20108;-70
2023/06/15 04:43:18;;;;;;;13.15;4.85;;;15.40;99.90;;;;;;5043605;28;20104;-70
2023/06/15 04:45:44;;;;;;;11.25;4.95;;;15.40;99.90;;;;;;5043754;28;20024;-69
2023/06/15 04:48:11;;;;;;;7.85;4.50;;;15.50;99.90;;;;;;5042485;28;20033;-70
2023/06/15 04:50:37;;;;;;;12.20;5.03;;;15.50;99.90;;;;;;5043622;28;20022;-69
2023/06/15 04:53:02;;;;;;;9.88;4.90;;;15.50;99.90;;;;;;5043064;28;20088;-69
2023/06/15 04:55:28;;;;;;;9.10;4.78;;;15.60;99.90;;;;;;5043411;28;20048;-70
2023/06/15 04:57:53;;;;;;;12.00;4.50;;;15.60;99.90;;;;;;5043529;28;20025;-70
2023/06/15 05:00:20;;;;;;;9.85;4.85;;;15.60;99.90;;;;;;5043307;28;20029;-68
2023/06/15 05:02:45;;;;;;;11.52;4.68;;;15.70;99.90;;;;;;5042981;28;20037;-70
2023/06/15 05:05:12;;;;;;;8.20;5.03;;;15.70;99.90;;;;;;5043299;28;20013;-69
2023/06/15 05:07:37;;;;;;;8.68;4.32;;;15.80;99.90;;;;;;5040754;28;20025;-68
2023/06/15 05:10:03;;;;;;;9.27;4.30;;;15.90;99.90;;;;;;5042836;28;20055;-70
2023/06/15 05:12:29;;;;;;;14.20;5.72;;;15.90;99.90;;;;;;5042428;28;20037;-69
2023/06/15 05:14:54;;;;;;;9.60;4.32;;;15.90;99.90;;;;;;5043093;28;20079;-69
2023/06/15 05:17:20;;;;;;;14.10;4.93;;;16.00;99.90;;;;;;5042899;28;20032;-69
2023/06/15 05:19:46;;;;;;;11.60;4.30;;;16.00;99.90;;;;;;5042901;28;20036;-68
2023/06/15 05:22:11;;;;;;;8.38;4.70;;;16.10;99.90;;;;;;5042596;28;20022;-70
2023/06/15 05:24:37;;;;;;;8.43;4.63;;;16.20;99.90;;;;;;5042735;28;20034;-69
2023/06/15 05:27:02;;;;;;;9.90;4.82;;;16.20;99.90;;;;;;5043137;28;20033;-69
2023/06/15 05:29:28;;;;;;;13.10;4.35;;;16.20;99.90;;;;;;5042764;28;20033;-68
2023/06/15 05:31:59;;;;;;;15.80;4.68;;;16.20;99.90;;;;;;5042078;28;20040;-68
2023/06/15 05:34:25;;;;;;;78.03;8.23;;;16.40;99.90;;;;;;5041532;28;20025;-70
2023/06/15 05:36:51;;;;;;;16.50;4.95;;;16.30;99.90;;;;;;5041970;28;20025;-70
2023/06/15 05:39:17;;;;;;;13.35;4.68;;;16.30;99.90;;;;;;5042603;28;20529;-70
2023/06/15 05:41:42;;;;;;;10.60;4.88;;;16.40;99.90;;;;;;5042965;28;20021;-69
2023/06/15 05:44:08;;;;;;;13.02;4.53;;;16.40;99.90;;;;;;5041100;28;20021;-71
2023/06/15 05:46:34;;;;;;;12.93;4.78;;;16.40;99.90;;;;;;5042689;28;20061;-71
2023/06/15 05:48:59;;;;;;;11.73;4.45;;;16.50;99.90;;;;;;5042688;28;20045;-68
2023/06/15 05:51:25;;;;;;;8.18;3.90;;;16.50;99.90;;;;;;5040802;28;20033;-69
2023/06/15 05:53:50;;;;;;;14.50;4.57;;;16.60;99.90;;;;;;5042344;28;20037;-70
2023/06/15 05:56:16;;;;;;;9.63;4.05;;;16.60;99.90;;;;;;5041959;28;20075;-69
2023/06/15 05:58:41;;;;;;;14.07;4.13;;;16.70;99.90;;;;;;5041723;28;20072;-69
2023/06/15 06:01:07;;;;;;;8.68;4.10;;;16.70;99.90;;;;;;5042247;28;20093;-70
2023/06/15 06:03:35;;;;;;;11.35;4.30;;;16.80;99.90;;;;;;5042544;28;20474;-70
2023/06/15 06:06:00;;;;;;;14.60;4.20;;;16.90;99.90;;;;;;5041462;28;20036;-71
2023/06/15 06:08:26;;;;;;;13.25;3.88;;;17.00;99.90;;;;;;5040985;28;20061;-70
2023/06/15 06:10:51;;;;;;;10.38;4.20;;;17.00;99.90;;;;;;5041976;28;20018;-69
2023/06/15 06:13:17;;;;;;;9.43;3.83;;;17.10;99.90;;;;;;5041876;28;20472;-70
2023/06/15 06:15:42;;;;;;;9.35;4.18;;;17.20;99.90;;;;;;5042194;28;20037;-70
2023/06/15 06:18:08;;;;;;;10.55;4.10;;;17.20;99.90;;;;;;5041390;28;20104;-69
2023/06/15 06:20:35;;;;;;;6.75;3.40;;;17.30;99.90;;;;;;5041911;28;20044;-69
2023/06/15 06:23:03;;;;;;;10.70;3.88;;;17.30;99.90;;;;;;5041920;28;20029;-69
2023/06/15 06:25:28;;;;;;;6.75;3.55;;;17.40;99.90;;;;;;5041648;28;20021;-69
2023/06/15 06:27:54;;;;;;;9.75;4.22;;;17.60;99.90;;;;;;5041913;28;20033;-68
2023/06/15 06:30:20;;;;;;;7.35;3.92;;;17.60;99.90;;;;;;5041636;28;20021;-70
2023/06/15 06:32:45;;;;;;;8.70;3.90;;;17.70;99.90;;;;;;5041703;28;20034;-68
2023/06/15 06:35:11;;;;;;;6.60;3.88;;;17.80;99.90;;;;;;5040439;28;20060;-69
2023/06/15 06:37:36;;;;;;;9.02;3.65;;;17.90;99.90;;;;;;5040602;28;20471;-70
2023/06/15 06:40:03;;;;;;;5.22;3.47;;;18.00;99.90;;;;;;5034030;28;20487;-68
2023/06/15 06:42:29;;;;;;;7.43;3.55;;;18.00;99.90;;;;;;5033906;28;20789;-68
2023/06/15 06:44:55;;;;;;;5.30;3.30;;;18.10;99.90;;;;;;5041923;28;20685;-69
2023/06/15 06:47:21;;;;;;;9.07;3.70;;;18.20;99.90;;;;;;5044837;28;20077;-68
2023/06/15 06:49:47;;;;;;;6.68;3.58;;;18.20;99.90;;;;;;5045546;28;20091;-68
2023/06/15 06:52:12;;;;;;;8.18;4.47;;;18.30;99.90;;;;;;5044414;28;20128;-68
2023/06/15 06:54:38;;;;;;;10.25;3.90;;;18.40;99.90;;;;;;5045539;28;20435;-68
2023/06/15 06:57:04;;;;;;;7.78;4.13;;;18.60;99.90;;;;;;5046003;28;20022;-70
2023/06/15 06:59:30;;;;;;;15.10;3.97;;;18.60;99.90;;;;;;5045776;28;20021;-67
2023/06/15 07:01:56;;;;;;;8.20;3.63;;;18.70;99.90;;;;;;5045180;28;20029;-68
2023/06/15 07:04:21;;;;;;;15.50;4.07;;;18.70;99.90;;;;;;5044841;28;20040;-68
2023/06/15 07:06:47;;;;;;;10.65;4.00;;;18.80;99.90;;;;;;5045150;28;20048;-70
2023/06/15 07:09:12;;;;;;;7.97;3.70;;;18.90;99.90;;;;;;5045164;28;20493;-69
2023/06/15 07:11:38;;;;;;;5.30;3.63;;;19.00;99.90;;;;;;5045630;28;20057;-68
2023/06/15 07:14:04;;;;;;;9.43;3.60;;;19.10;99.90;;;;;;5045160;28;20056;-68
2023/06/15 07:16:32;;;;;;;10.88;3.80;;;19.10;99.90;;;;;;5044042;28;20021;-68
2023/06/15 07:18:58;;;;;;;7.78;3.42;;;19.20;99.90;;;;;;5043782;28;20036;-67
2023/06/15 07:21:24;;;;;;;7.30;3.75;;;19.30;99.90;;;;;;5044340;28;20037;-68
2023/06/15 07:23:49;;;;;;;6.25;3.53;;;19.40;99.90;;;;;;5043379;28;20487;-68
2023/06/15 07:26:15;;;;;;;10.60;3.53;;;19.50;99.90;;;;;;5045377;28;20041;-69
2023/06/15 07:28:40;;;;;;;8.23;3.40;;;19.60;99.90;;;;;;5043524;28;20075;-70
2023/06/15 07:31:06;;;;;;;8.48;3.63;;;19.70;99.90;;;;;;5045105;28;20071;-67
2023/06/15 07:33:32;;;;;;;7.70;3.45;;;19.70;99.90;;;;;;5045367;28;20073;-68
2023/06/15 07:35:57;;;;;;;8.77;3.63;;;19.80;99.90;;;;;;5044516;28;20021;-69
2023/06/15 07:38:23;;;;;;;5.10;3.22;;;20.00;99.90;;;;;;5044978;28;20482;-69
2023/06/15 07:40:48;;;;;;;8.57;3.78;;;20.10;99.90;;;;;;5044716;28;20030;-69
2023/06/15 07:43:14;;;;;;;5.55;3.67;;;20.10;99.90;;;;;;5044595;28;20033;-69
2023/06/15 07:45:41;;;;;;;6.38;3.42;;;20.20;99.90;;;;;;5043617;28;20525;-68
2023/06/15 07:48:07;;;;;;;12.38;4.03;;;20.20;99.90;;;;;;5042101;28;20013;-70
2023/06/15 07:50:33;;;;;;;8.45;3.80;;;20.30;99.90;;;;;;5042577;28;20029;-70
2023/06/15 07:52:58;;;;;;;5.93;3.30;;;20.40;99.90;;;;;;5042508;28;20398;-69
2023/06/15 07:55:24;;;;;;;12.13;4.00;;;20.50;99.90;;;;;;5044041;28;20029;-68
2023/06/15 07:57:50;;;;;;;5.90;3.70;;;20.50;99.90;;;;;;5043061;28;20101;-70
2023/06/15 08:00:16;;;;;;;9.95;4.20;;;20.50;99.90;;;;;;5044480;28;20053;-69
2023/06/15 08:02:42;;;;;;;6.30;3.40;;;20.60;99.90;;;;;;5044435;28;20085;-69
2023/06/15 08:05:08;;;;;;;7.20;3.45;;;20.60;99.90;;;;;;5044233;28;20022;-68
2023/06/15 08:07:33;;;;;;;6.43;3.70;;;20.70;99.90;;;;;;5044569;28;20390;-69
2023/06/15 08:09:59;;;;;;;8.50;3.60;;;20.70;99.90;;;;;;5043034;28;20029;-71
2023/06/15 08:12:25;;;;;;;9.15;3.45;;;20.90;99.90;;;;;;5044276;28;20041;-69
2023/06/15 08:14:50;;;;;;;8.90;3.72;;;20.90;99.90;;;;;;5043059;28;20028;-67
2023/06/15 08:17:16;;;;;;;11.52;3.42;;;21.00;99.90;;;;;;5043122;28;21291;-68
2023/06/15 08:19:42;;;;;;;8.68;3.90;;;21.10;99.90;;;;;;5044242;28;20022;-71
2023/06/15 08:22:07;;;;;;;9.35;3.58;;;21.20;99.90;;;;;;5044081;28;20017;-69
2023/06/15 08:24:33;;;;;;;7.10;3.33;;;21.30;99.90;;;;;;5043722;28;20025;-71
2023/06/15 08:27:00;;;;;;;8.23;3.60;;;21.40;99.90;;;;;;5042827;28;20096;-68
2023/06/15 08:29:25;;;;;;;8.13;3.60;;;21.50;99.90;;;;;;5042270;28;20149;-69
2023/06/15 08:31:51;;;;;;;9.18;3.80;;;21.60;99.90;;;;;;5042572;28;20030;-68
2023/06/15 08:34:17;;;;;;;8.55;3.20;;;21.70;99.90;;;;;;5043971;28;20461;-69
2023/06/15 08:36:43;;;;;;;9.73;3.50;;;21.70;99.90;;;;;;5042831;28;20033;-68
2023/06/15 08:39:08;;;;;;;8.60;3.40;;;21.80;99.90;;;;;;5043684;28;20017;-68
2023/06/15 08:41:37;;;;;;;9.75;3.78;;;21.90;99.90;;;;;;5043949;28;20033;-69
2023/06/15 08:44:04;;;;;;;9.18;3.70;;;22.00;99.90;;;;;;5043722;28;20513;-70
2023/06/15 08:46:30;;;;;;;6.10;3.28;;;22.00;99.90;;;;;;5043878;28;20033;-70
2023/06/15 08:48:58;;;;;;;7.28;3.33;;;22.10;99.90;;;;;;5048743;28;20045;-69
2023/06/15 08:51:24;;;;;;;8.23;3.53;;;22.10;99.90;;;;;;5043490;28;20029;-68
2023/06/15 08:53:52;;;;;;;5.43;3.60;;;22.20;99.90;;;;;;5042995;28;20049;-68
2023/06/15 08:56:18;;;;;;;8.23;3.75;;;22.30;99.90;;;;;;5043108;28;20108;-69
2023/06/15 08:58:49;;;;;;;5.05;3.22;;;22.40;99.90;;;;;;5043143;28;20025;-67
2023/06/15 09:01:22;;;;;;;8.02;3.40;;;22.50;99.90;;;;;;5041469;28;20021;-69
2023/06/15 09:03:53;;;;;;;6.78;3.50;;;22.50;99.90;;;;;;5041458;28;20053;-68
2023/06/15 09:06:19;;;;;;;6.95;3.30;;;22.70;99.90;;;;;;5040962;28;20021;-66
2023/06/15 09:08:46;;;;;;;7.22;3.50;;;22.80;99.90;;;;;;5041475;28;20034;-68
2023/06/15 09:11:12;;;;;;;10.65;3.45;;;22.90;99.90;;;;;;5038239;28;20072;-68
2023/06/15 09:13:37;;;;;;;8.30;3.30;;;23.10;99.90;;;;;;5041867;28;20037;-70
2023/06/15 09:16:07;;;;;;;5.97;3.35;;;23.10;99.30;;;;;;5043417;28;20034;-68
2023/06/15 09:18:43;;;;;;;9.02;3.40;;;23.20;98.90;;;;;;5040944;28;20029;-69
2023/06/15 09:21:14;;;;;;;12.80;3.60;;;23.30;99.40;;;;;;5035757;28;20436;-71
2023/06/15 09:23:42;;;;;;;7.97;3.25;;;23.30;99.30;;;;;;5042330;28;20040;-70
2023/06/15 09:26:09;;;;;;;6.07;3.15;;;23.40;99.10;;;;;;5041263;28;20060;-70
2023/06/15 09:28:42;;;;;;;8.10;3.50;;;23.50;98.70;;;;;;5042509;28;20052;-69
2023/06/15 09:31:09;;;;;;;4.50;3.40;;;23.60;98.40;;;;;;5042617;28;20029;-68
2023/06/15 09:33:34;;;;;;;7.53;3.35;;;23.70;98.40;;;;;;5041776;28;20041;-68
2023/06/15 09:36:05;;;;;;;8.15;3.08;;;23.80;98.30;;;;;;5043091;28;20044;-69
2023/06/15 09:38:32;;;;;;;8.95;3.30;;;23.80;97.80;;;;;;5041623;28;20561;-68
2023/06/15 09:41:05;;;;;;;5.50;3.15;;;23.90;98.20;;;;;;5040094;28;20025;-68
2023/06/15 09:43:33;;;;;;;5.45;3.40;;;24.00;97.50;;;;;;5039356;28;20037;-69
2023/06/15 09:46:00;;;;;;;7.43;3.47;;;24.00;97.40;;;;;;5038992;28;20115;-69
2023/06/15 09:48:28;;;;;;;8.32;3.65;;;24.10;97.80;;;;;;5038758;28;20025;-72
2023/06/15 09:50:59;;;;;;;7.63;3.47;;;24.00;97.70;;;;;;5038392;28;20045;-68
2023/06/15 09:53:26;;;;;;;9.88;3.55;;;24.00;97.40;;;;;;5038150;28;20045;-71
2023/06/15 09:55:52;;;;;;;4.30;3.15;;;24.00;97.30;;;;;;5037644;28;20042;-69
2023/06/15 09:58:18;;;;;;;6.22;3.28;;;24.10;97.30;;;;;;5040406;28;20029;-68
2023/06/15 10:00:43;;;;;;;8.65;3.60;;;24.10;97.30;;;;;;5036165;28;20474;-70
2023/06/15 10:03:14;;;;;;;10.18;3.15;;;24.20;97.10;;;;;;5039444;28;20033;-68
2023/06/15 10:05:44;;;;;;;11.95;4.00;;;24.30;97.00;;;;;;5040907;28;20026;-69
2023/06/15 10:08:12;;;;;;;15.68;3.50;;;24.40;97.00;;;;;;5040243;28;20029;-70
2023/06/15 10:10:41;;;;;;;11.18;3.70;;;24.50;97.30;;;;;;5041343;28;20029;-68
2023/06/15 10:13:12;;;;;;;11.60;3.60;;;24.60;96.30;;;;;;5036129;28;20084;-70
2023/06/15 10:15:41;;;;;;;7.40;3.10;;;24.70;96.30;;;;;;5040757;28;20032;-72
2023/06/15 10:18:10;;;;;;;6.03;3.45;;;24.60;96.20;;;;;;5040437;28;20080;-69
2023/06/15 10:20:36;;;;;;;4.90;2.70;;;24.60;96.40;;;;;;5039464;28;20116;-69
2023/06/15 10:23:04;;;;;;;9.88;3.22;;;24.70;96.20;;;;;;5039859;28;20029;-70
2023/06/15 10:25:31;;;;;;;7.47;3.70;;;24.80;96.30;;;;;;5040568;28;20021;-69
2023/06/15 10:28:09;;;;;;;8.10;3.30;;;24.90;96.10;;;;;;5040791;28;20021;-67
2023/06/15 10:31:00;;;;;;;5.22;3.20;;;25.00;95.40;;;;;;5036814;28;20033;-68
2023/06/15 10:33:41;;;;;;;7.72;3.40;;;25.10;96.00;;;;;;5034380;28;20033;-68
2023/06/15 10:36:15;;;;;;;9.88;3.63;;;25.20;94.60;;;;;;5038470;28;20022;-68
2023/06/15 10:38:55;;;;;;;10.13;3.63;;;25.30;94.80;;;;;;5039992;28;20112;-68
2023/06/15 10:41:21;;;;;;;9.25;3.35;;;25.30;94.70;;;;;;5040753;28;20029;-69
2023/06/15 10:44:00;;;;;;;6.60;3.10;;;25.20;94.40;;;;;;5039886;28;20052;-70
2023/06/15 10:46:28;;;;;;;8.10;3.60;;;25.20;94.60;;;;;;5041518;28;20093;-68
2023/06/15 10:48:54;;;;;;;11.57;2.88;;;25.10;95.20;;;;;;5039957;28;20089;-68
2023/06/15 10:51:21;;;;;;;9.80;3.50;;;25.10;95.10;;;;;;5038360;28;20064;-72
2023/06/15 10:53:47;;;;;;;7.78;3.35;;;25.10;95.00;;;;;;5039567;28;20518;-69
2023/06/15 10:56:17;;;;;;;7.15;3.15;;;25.30;95.40;;;;;;5040243;28;20152;-68
2023/06/15 10:59:07;;;;;;;8.65;3.45;;;25.40;95.00;;;;;;5034841;28;20034;-69
2023/06/15 11:01:41;;;;;;;6.25;3.38;;;25.70;94.80;;;;;;5037034;28;20039;-71
2023/06/15 11:04:30;;;;;;;7.45;3.25;;;25.80;95.10;;;;;;5035650;28;20132;-69
2023/06/15 11:06:57;;;;;;;6.70;3.42;;;25.90;94.90;;;;;;5038450;28;20048;-68
2023/06/15 11:09:28;;;;;;;9.27;3.60;;;25.90;94.90;;;;;;5039570;28;20101;-68
2023/06/15 11:11:54;;;;;;;7.15;3.20;;;25.90;94.70;;;;;;5039615;28;21955;-70
2023/06/15 11:14:23;;;;;;;6.57;3.25;;;25.80;94.60;;;;;;5040873;28;20145;-69
2023/06/15 11:17:05;;;;;;;7.53;3.20;;;25.80;95.10;;;;;;5040122;28;20033;-68
2023/06/15 11:19:31;;;;;;;9.23;3.30;;;25.70;94.10;;;;;;5038389;28;20056;-70
2023/06/15 11:22:05;;;;;;;10.52;3.28;;;25.60;94.90;;;;;;5040163;28;20021;-68
2023/06/15 11:24:34;;;;;;;;;;;25.70;94.70;;;;;;5041976;28;20037;-69
2023/06/15 11:27:08;;;;;;;7.78;3.38;;;25.90;93.00;;;;;;5039320;28;20019;-71
2023/06/15 11:29:40;;;;;;;13.65;3.92;;;26.10;94.50;;;;;;5040291;28;20179;-69
2023/06/15 11:32:07;;;;;;;8.40;3.42;;;26.10;94.70;;;;;;5044126;28;20038;-69
2023/06/15 11:34:33;;;;;;;5.20;3.10;;;26.00;94.50;;;;;;5043106;28;20026;-68
2023/06/15 11:37:00;;;;;;;9.45;3.60;;;26.10;94.50;;;;;;5044613;28;20033;-69
2023/06/15 11:39:28;;;;;;;6.85;3.38;;;26.10;94.40;;;;;;5044119;28;20539;-68
2023/06/15 11:41:56;;;;;;;16.10;3.38;;;26.10;94.40;;;;;;5044527;28;20469;-67
2023/06/15 11:44:29;;;;;;;5.65;3.58;;;26.30;94.60;;;;;;5043764;28;20036;-67
2023/06/15 11:47:01;;;;;;;14.40;3.55;;;26.50;94.60;;;;;;5043443;28;20029;-68
2023/06/15 11:49:35;;;;;;;7.75;3.28;;;26.90;94.40;;;;;;5044317;28;20054;-69
2023/06/15 11:52:05;;;;;;;11.73;3.50;;;27.10;93.50;;;;;;5044508;28;20055;-70
2023/06/15 11:54:30;;;;;;;9.65;3.55;;;27.30;93.90;;;;;;5044376;28;20072;-69
2023/06/15 11:56:57;;;;;;;14.20;3.42;;;27.30;93.70;;;;;;5044728;28;20029;-69
2023/06/15 11:59:25;;;;;;;9.63;3.10;;;27.10;93.70;;;;;;5044187;28;20037;-69
2023/06/15 12:01:51;;;;;;;10.52;3.63;;;26.80;93.70;;;;;;5042976;28;20518;-69
2023/06/15 12:04:17;;;;;;;7.60;3.47;;;26.60;93.80;;;;;;5043220;28;20029;-69
2023/06/15 12:06:45;;;;;;;10.32;3.85;;;26.30;93.80;;;;;;5041461;28;20028;-68
2023/06/15 12:09:11;;;;;;;7.85;3.58;;;26.10;93.90;;;;;;5044660;28;20450;-68
2023/06/15 12:11:37;;;;;;;7.38;3.53;;;25.80;93.90;;;;;;5044335;28;20021;-70
2023/06/15 12:14:06;;;;;;;6.45;3.47;;;25.70;94.00;;;;;;5044083;28;20040;-69
2023/06/15 12:16:32;;;;;;;15.32;3.90;;;25.70;94.10;;;;;;5044322;28;20033;-68
2023/06/15 12:18:58;;;;;;;6.97;3.65;;;25.70;94.10;;;;;;5043366;28;20025;-69
2023/06/15 12:21:28;;;;;;;9.75;3.60;;;25.60;93.80;;;;;;5044258;28;20029;-68
2023/06/15 12:23:55;;;;;;;9.20;3.47;;;25.60;93.80;;;;;;5042518;28;20025;-68
2023/06/15 12:26:21;;;;;;;9.45;3.20;;;25.70;93.90;;;;;;5043286;28;20068;-70
2023/06/15 12:28:49;;;;;;;6.30;3.40;;;25.90;93.80;;;;;;5044133;28;20013;-68
2023/06/15 12:31:15;;;;;;;10.35;3.78;;;26.00;93.70;;;;;;5043641;28;20022;-69
2023/06/15 12:33:42;;;;;;;8.02;3.30;;;26.20;94.00;;;;;;5043090;28;20044;-69
2023/06/15 12:36:10;;;;;;;11.40;3.50;;;26.30;93.60;;;;;;5044087;28;20029;-70
2023/06/15 12:38:37;;;;;;;6.45;3.20;;;26.30;92.50;;;;;;5043525;28;20036;-71
2023/06/15 12:41:03;;;;;;;12.02;3.28;;;26.20;92.50;;;;;;5042953;28;20024;-68
2023/06/15 12:43:30;;;;;;;9.00;3.60;;;26.10;92.80;;;;;;5043493;28;20029;-68
2023/06/15 12:45:56;;;;;;;9.25;3.47;;;26.10;92.80;;;;;;5043051;28;20044;-71